createdAt,value
2022-12-15T00:02:19.981Z,-4.20
2022-12-15T00:05:06.160Z,-4.30
2022-12-15T00:07:52.261Z,-4.20
2022-12-15T00:10:38.298Z,-4.20
2022-12-15T00:13:31.865Z,-4.20
2022-12-15T00:16:18.057Z,-4.10
2022-12-15T00:19:04.231Z,-3.90
2022-12-15T00:21:50.532Z,-3.90
2022-12-15T00:24:36.288Z,-3.80
2022-12-15T00:27:21.789Z,-3.80
2022-12-15T00:30:07.962Z,-3.90
2022-12-15T00:32:53.580Z,-3.80
2022-12-15T00:35:39.296Z,-3.80
2022-12-15T00:38:26.955Z,-3.80
2022-12-15T00:40:59.071Z,-3.90
2022-12-15T00:43:31.738Z,-3.90
2022-12-15T00:46:18.297Z,-4.00
2022-12-15T00:48:46.167Z,-3.90
2022-12-15T00:51:14.213Z,-3.90
2022-12-15T00:54:00.934Z,-3.80
2022-12-15T00:56:47.225Z,-3.80
2022-12-15T00:59:33.358Z,-3.70
2022-12-15T01:02:19.601Z,-3.60
2022-12-15T01:05:06.090Z,-3.60
2022-12-15T01:07:52.230Z,-3.60
2022-12-15T01:10:38.291Z,-3.60
2022-12-15T01:13:24.634Z,-3.60
2022-12-15T01:16:10.827Z,-3.40
2022-12-15T01:18:56.663Z,-3.40
2022-12-15T01:21:25.510Z,-3.30
2022-12-15T01:23:53.138Z,-3.30
2022-12-15T01:26:20.367Z,-3.30
2022-12-15T01:28:47.600Z,-3.30
2022-12-15T01:31:14.906Z,-3.30
2022-12-15T01:33:44.930Z,-3.30
2022-12-15T01:36:12.144Z,-3.20
2022-12-15T01:38:39.282Z,-3.20
2022-12-15T01:41:10.003Z,-3.10
2022-12-15T01:43:39.526Z,-3.20
2022-12-15T01:46:11.612Z,-3.20
2022-12-15T01:48:48.143Z,-3.30
2022-12-15T01:51:32.280Z,-3.20
2022-12-15T01:54:05.292Z,-3.30
2022-12-15T01:56:37.911Z,-3.40
2022-12-15T01:59:09.292Z,-3.40
2022-12-15T02:01:36.870Z,-3.40
2022-12-15T02:04:04.291Z,-3.40
2022-12-15T02:06:31.403Z,-3.40
2022-12-15T02:09:00.859Z,-3.40
2022-12-15T02:11:37.027Z,-3.30
2022-12-15T02:14:07.580Z,-3.30
2022-12-15T02:17:02.102Z,-3.20
2022-12-15T02:19:51.078Z,-3.20
2022-12-15T02:22:37.094Z,-3.20
2022-12-15T02:25:11.574Z,-3.10
2022-12-15T02:27:49.317Z,-3.10
2022-12-15T02:30:42.193Z,-3.10
2022-12-15T02:33:18.389Z,-3.00
2022-12-15T02:36:27.152Z,-2.90
2022-12-15T02:38:54.319Z,-3.00
2022-12-15T02:41:39.635Z,-3.00
2022-12-15T02:44:15.872Z,-3.00
2022-12-15T02:47:01.091Z,-3.00
2022-12-15T02:49:54.920Z,-3.00
2022-12-15T02:53:03.987Z,-3.00
2022-12-15T02:55:37.544Z,-3.00
2022-12-15T02:58:28.052Z,-3.00
2022-12-15T03:01:02.693Z,-3.00
2022-12-15T03:03:32.868Z,-3.10
2022-12-15T03:06:02.332Z,-3.30
2022-12-15T03:08:29.906Z,-3.30
2022-12-15T03:10:58.877Z,-3.40
2022-12-15T03:13:26.071Z,-3.30
2022-12-15T03:15:54.547Z,-3.40
2022-12-15T03:18:21.988Z,-3.30
2022-12-15T03:20:49.235Z,-3.40
2022-12-15T03:23:16.485Z,-3.40
2022-12-15T03:25:49.778Z,-3.40
2022-12-15T03:28:17.576Z,-3.30
2022-12-15T03:30:44.875Z,-3.30
2022-12-15T03:33:12.177Z,-3.30
2022-12-15T03:35:39.343Z,-3.20
2022-12-15T03:38:06.565Z,-3.20
2022-12-15T03:40:33.677Z,-3.10
2022-12-15T03:43:00.790Z,-3.10
2022-12-15T03:45:28.983Z,-3.00
2022-12-15T03:47:58.096Z,-3.00
2022-12-15T03:50:27.539Z,-3.00
2022-12-15T03:52:58.686Z,-3.00
2022-12-15T03:55:28.400Z,-2.90
2022-12-15T03:57:55.950Z,-2.90
2022-12-15T04:00:24.813Z,-3.00
2022-12-15T04:02:52.709Z,-3.10
2022-12-15T04:05:28.524Z,-3.00
2022-12-15T04:07:57.599Z,-3.00
2022-12-15T04:10:33.544Z,-3.00
2022-12-15T04:13:06.112Z,-3.00
2022-12-15T04:15:34.851Z,-2.90
2022-12-15T04:18:04.305Z,-3.00
2022-12-15T04:20:31.541Z,-3.00
2022-12-15T04:22:58.971Z,-3.10
2022-12-15T04:25:45.472Z,-3.10
2022-12-15T04:28:32.099Z,-3.30
2022-12-15T04:31:40.584Z,-3.40
2022-12-15T04:34:31.714Z,-3.50
2022-12-15T04:37:18.186Z,-3.50
2022-12-15T04:40:08.902Z,-3.40
2022-12-15T04:42:56.514Z,-3.40
2022-12-15T04:45:44.195Z,-3.40
2022-12-15T04:48:30.865Z,-3.40
2022-12-15T04:51:16.712Z,-3.40
2022-12-15T04:54:05.645Z,-3.40
2022-12-15T04:56:51.586Z,-3.40
2022-12-15T04:59:37.229Z,-3.40
2022-12-15T05:02:22.919Z,-3.50
2022-12-15T05:05:08.716Z,-3.70
2022-12-15T05:07:54.102Z,-3.80
2022-12-15T05:10:39.855Z,-3.70
2022-12-15T05:13:26.668Z,-3.70
2022-12-15T05:16:12.329Z,-3.70
2022-12-15T05:18:58.232Z,-3.70
2022-12-15T05:21:43.860Z,-3.60
2022-12-15T05:24:29.506Z,-3.60
2022-12-15T05:27:15.159Z,-3.50
2022-12-15T05:30:00.922Z,-3.60
2022-12-15T05:32:28.031Z,-3.60
2022-12-15T05:34:55.174Z,-3.60
2022-12-15T05:37:22.283Z,-3.60
2022-12-15T05:39:49.478Z,-3.70
2022-12-15T05:42:16.618Z,-3.70
2022-12-15T05:44:43.999Z,-3.70
2022-12-15T05:47:11.824Z,-3.80
2022-12-15T05:49:39.057Z,-3.80
2022-12-15T05:52:06.824Z,-3.80
2022-12-15T05:54:33.966Z,-3.90
2022-12-15T05:57:01.061Z,-3.90
2022-12-15T05:59:28.199Z,-4.00
2022-12-15T06:01:55.331Z,-4.00
2022-12-15T06:04:22.564Z,-4.00
2022-12-15T06:06:49.740Z,-4.00
2022-12-15T06:09:16.926Z,-4.00
2022-12-15T06:11:44.773Z,-4.00
2022-12-15T06:14:11.930Z,-3.80
2022-12-15T06:16:50.178Z,-3.90
2022-12-15T06:19:20.035Z,-3.90
2022-12-15T06:21:47.185Z,-4.00
2022-12-15T06:24:14.420Z,-4.10
2022-12-15T06:26:42.044Z,-4.20
2022-12-15T06:29:11.351Z,-4.30
2022-12-15T06:31:39.198Z,-4.30
2022-12-15T06:34:10.517Z,-4.40
2022-12-15T06:36:37.713Z,-4.40
2022-12-15T06:39:07.163Z,-4.50
2022-12-15T06:41:34.553Z,-4.70
2022-12-15T06:44:01.787Z,-4.70
2022-12-15T06:46:30.544Z,-4.70
2022-12-15T06:48:58.811Z,-4.70
2022-12-15T06:51:27.235Z,-4.60
2022-12-15T06:53:55.327Z,-4.70
2022-12-15T06:56:38.994Z,-4.70
2022-12-15T06:59:07.417Z,-4.80
2022-12-15T07:01:35.368Z,-4.80
2022-12-15T07:04:05.429Z,-4.80
2022-12-15T07:06:37.459Z,-4.80
2022-12-15T07:09:07.954Z,-4.70
2022-12-15T07:11:35.529Z,-4.70
2022-12-15T07:14:03.241Z,-4.70
2022-12-15T07:16:31.205Z,-4.60
2022-12-15T07:18:58.452Z,-4.50
2022-12-15T07:21:25.647Z,-4.50
2022-12-15T07:23:55.173Z,-4.50
2022-12-15T07:26:23.638Z,-4.40
2022-12-15T07:28:51.301Z,-4.30
2022-12-15T07:31:18.555Z,-4.30
2022-12-15T07:33:47.496Z,-4.20
2022-12-15T07:36:14.607Z,-4.20
2022-12-15T07:38:41.813Z,-4.10
2022-12-15T07:41:10.110Z,-4.10
2022-12-15T07:43:38.184Z,-4.10
2022-12-15T07:46:06.492Z,-4.00
2022-12-15T07:48:33.945Z,-4.00
2022-12-15T07:51:11.099Z,-3.80
2022-12-15T07:53:42.586Z,-3.80
2022-12-15T07:56:10.506Z,-3.70
2022-12-15T07:58:38.577Z,-3.70
2022-12-15T08:01:08.290Z,-3.60
2022-12-15T08:03:37.103Z,-3.60
2022-12-15T08:06:10.369Z,-3.40
2022-12-15T08:08:38.451Z,-3.30
2022-12-15T08:11:10.399Z,-3.30
2022-12-15T08:14:01.987Z,-3.20
2022-12-15T08:16:26.328Z,-3.20
2022-12-15T08:18:53.879Z,-3.20
2022-12-15T08:21:21.164Z,-3.10
2022-12-15T08:23:48.327Z,-3.10
2022-12-15T08:26:18.006Z,-3.10
2022-12-15T08:28:45.847Z,-3.00
2022-12-15T08:31:18.818Z,-2.90
2022-12-15T08:33:46.968Z,-2.90
2022-12-15T08:36:16.425Z,-2.80
2022-12-15T08:38:45.600Z,-2.70
2022-12-15T08:41:16.021Z,-2.70
2022-12-15T08:43:48.656Z,-2.60
2022-12-15T08:46:28.113Z,-2.50
2022-12-15T08:48:55.727Z,-2.40
2022-12-15T08:51:24.347Z,-2.30
2022-12-15T08:53:51.530Z,-2.20
2022-12-15T08:56:20.575Z,-2.10
2022-12-15T08:58:49.389Z,-2.00
2022-12-15T09:01:23.967Z,-2.00
2022-12-15T09:03:53.849Z,-1.90
2022-12-15T09:06:32.981Z,-1.80
2022-12-15T09:09:02.689Z,-1.70
2022-12-15T09:11:30.644Z,-1.60
2022-12-15T09:13:58.160Z,-1.60
2022-12-15T09:16:25.702Z,-1.40
2022-12-15T09:18:55.228Z,-1.40
2022-12-15T09:21:26.137Z,-1.30
2022-12-15T09:23:57.708Z,-1.20
2022-12-15T09:26:24.880Z,-1.20
2022-12-15T09:28:57.750Z,-1.10
2022-12-15T09:31:28.648Z,-1.00
2022-12-15T09:33:59.585Z,-0.90
2022-12-15T09:36:28.404Z,-0.80
2022-12-15T09:38:55.538Z,-0.70
2022-12-15T09:41:28.364Z,-0.50
2022-12-15T09:44:20.316Z,-0.40
2022-12-15T09:46:55.230Z,-0.30
2022-12-15T09:49:43.653Z,-0.20
2022-12-15T09:52:14.346Z,-0.10
2022-12-15T09:54:43.195Z,0.00
2022-12-15T09:57:31.440Z,0.10
2022-12-15T10:00:12.296Z,0.20
2022-12-15T10:02:39.386Z,0.30
2022-12-15T10:05:17.100Z,0.40
2022-12-15T10:07:46.523Z,0.50
2022-12-15T10:10:43.220Z,0.70
2022-12-15T10:13:23.500Z,0.90
2022-12-15T10:16:26.776Z,1.00
2022-12-15T10:19:37.382Z,1.20
2022-12-15T10:22:04.673Z,1.40
2022-12-15T10:27:32.271Z,1.70
2022-12-15T10:30:10.820Z,1.90
2022-12-15T10:33:19.411Z,2.10
2022-12-15T10:35:47.961Z,2.30
2022-12-15T10:38:42.498Z,2.40
2022-12-15T10:41:16.143Z,2.60
2022-12-15T10:46:36.056Z,2.80
2022-12-15T10:49:06.367Z,3.00
2022-12-15T10:51:37.298Z,2.90
2022-12-15T10:54:10.591Z,3.00
2022-12-15T10:56:55.833Z,3.00
2022-12-15T10:59:22.886Z,3.00
2022-12-15T11:01:51.090Z,2.90
2022-12-15T11:04:26.909Z,2.90
2022-12-15T11:06:59.759Z,2.90
2022-12-15T11:09:29.722Z,2.90
2022-12-15T11:12:15.730Z,2.90
2022-12-15T11:14:45.602Z,2.90
2022-12-15T11:17:41.864Z,2.90
2022-12-15T11:20:18.640Z,2.80
2022-12-15T11:23:07.359Z,2.90
2022-12-15T11:26:00.449Z,2.90
2022-12-15T11:28:47.088Z,2.90
2022-12-15T11:31:23.330Z,2.90
2022-12-15T11:33:54.973Z,2.80
2022-12-15T11:36:31.047Z,2.90
2022-12-15T11:39:29.803Z,2.90
2022-12-15T11:42:29.429Z,2.90
2022-12-15T11:45:05.128Z,2.90
2022-12-15T11:47:45.034Z,2.90
2022-12-15T11:50:30.378Z,3.00
2022-12-15T11:53:11.442Z,3.10
2022-12-15T11:55:56.884Z,3.20
2022-12-15T11:58:37.935Z,3.20
2022-12-15T12:01:17.624Z,3.20
2022-12-15T12:03:48.238Z,3.30
2022-12-15T12:06:25.120Z,3.40
2022-12-15T12:09:07.305Z,3.40
2022-12-15T12:11:55.476Z,3.40
2022-12-15T12:14:31.308Z,3.40
2022-12-15T12:17:11.240Z,3.40
2022-12-15T12:19:50.840Z,3.50
2022-12-15T12:22:24.034Z,3.60
2022-12-15T12:25:03.931Z,3.70
2022-12-15T12:27:50.325Z,3.80
2022-12-15T12:30:23.203Z,3.80
2022-12-15T12:33:32.073Z,3.80
2022-12-15T12:36:25.544Z,3.80
2022-12-15T12:38:56.251Z,3.80
2022-12-15T12:41:36.800Z,3.60
2022-12-15T12:44:20.263Z,3.60
2022-12-15T12:46:52.174Z,3.40
2022-12-15T12:49:26.787Z,3.40
2022-12-15T12:51:56.861Z,3.30
2022-12-15T12:54:36.010Z,3.30
2022-12-15T12:57:35.207Z,3.30
2022-12-15T13:00:02.440Z,3.20
2022-12-15T13:02:35.352Z,3.20
2022-12-15T13:05:24.945Z,3.20
2022-12-15T13:08:06.859Z,3.20
2022-12-15T13:10:40.326Z,3.30
2022-12-15T13:13:31.305Z,3.20
2022-12-15T13:16:07.936Z,3.20
2022-12-15T13:19:08.504Z,3.10
2022-12-15T13:21:41.831Z,3.00
2022-12-15T13:24:41.638Z,2.90
2022-12-15T13:27:08.745Z,2.90
2022-12-15T13:29:57.072Z,2.90
2022-12-15T13:32:47.442Z,2.90
2022-12-15T13:35:14.705Z,2.80
2022-12-15T13:37:50.632Z,2.70
2022-12-15T13:40:37.747Z,2.60
2022-12-15T13:43:04.860Z,2.50
2022-12-15T13:45:38.162Z,2.40
2022-12-15T13:48:24.394Z,2.30
2022-12-15T13:51:18.281Z,2.20
2022-12-15T13:53:51.581Z,2.20
2022-12-15T13:56:27.862Z,2.10
2022-12-15T13:59:04.154Z,2.00
2022-12-15T14:01:33.532Z,2.00
2022-12-15T14:04:15.575Z,1.90
2022-12-15T14:07:00.673Z,1.90
2022-12-15T14:09:35.776Z,1.90
2022-12-15T14:12:05.504Z,1.90
2022-12-15T14:14:37.061Z,1.80
2022-12-15T14:17:08.766Z,1.80
2022-12-15T14:19:43.858Z,1.70
2022-12-15T14:22:28.168Z,1.70
2022-12-15T14:25:13.407Z,1.70
2022-12-15T14:27:40.750Z,1.60
2022-12-15T14:30:26.896Z,1.60
2022-12-15T14:33:24.064Z,1.60
2022-12-15T14:35:58.367Z,1.60
2022-12-15T14:38:49.929Z,1.60
2022-12-15T14:41:37.298Z,1.50
2022-12-15T14:44:36.353Z,1.40
2022-12-15T14:47:16.328Z,1.40
2022-12-15T14:49:45.494Z,1.40
2022-12-15T14:52:40.035Z,1.30
2022-12-15T14:55:38.845Z,1.20
2022-12-15T14:58:32.975Z,1.20
2022-12-15T15:01:03.114Z,1.20
2022-12-15T15:03:04.066Z,2.70
2022-12-15T15:03:39.313Z,1.20
2022-12-15T15:06:18.159Z,1.10
2022-12-15T15:08:50.910Z,1.20
2022-12-15T15:11:29.516Z,1.20
2022-12-15T15:14:00.522Z,1.20
2022-12-15T15:16:28.059Z,1.20
2022-12-15T15:18:56.462Z,1.20
2022-12-15T15:21:34.108Z,1.20
2022-12-15T15:24:02.250Z,1.20
2022-12-15T15:26:31.000Z,1.20
2022-12-15T15:28:58.795Z,1.10
2022-12-15T15:31:27.988Z,1.10
2022-12-15T15:33:57.959Z,1.10
2022-12-15T15:36:31.557Z,1.10
2022-12-15T15:38:59.351Z,1.10
2022-12-15T15:41:31.790Z,1.10
2022-12-15T15:44:00.606Z,1.10
2022-12-15T15:46:35.969Z,1.10
2022-12-15T15:49:08.146Z,1.00
2022-12-15T15:51:36.122Z,1.00
2022-12-15T15:54:06.357Z,0.90
2022-12-15T15:56:33.632Z,0.90
2022-12-15T15:59:13.857Z,1.00
2022-12-15T16:01:41.406Z,1.00
2022-12-15T16:04:09.107Z,0.90
2022-12-15T16:06:37.477Z,0.80
2022-12-15T16:09:09.658Z,0.90
2022-12-15T16:11:37.962Z,0.90
2022-12-15T16:14:12.019Z,0.90
2022-12-15T16:16:39.257Z,0.90
2022-12-15T16:19:06.917Z,0.90
2022-12-15T16:21:35.659Z,0.90
2022-12-15T16:24:14.488Z,0.90
2022-12-15T16:26:47.306Z,0.90
2022-12-15T16:29:20.009Z,0.90
2022-12-15T16:31:47.611Z,0.90
2022-12-15T16:34:19.336Z,0.90
2022-12-15T16:36:46.808Z,0.90
2022-12-15T16:39:27.555Z,0.90
2022-12-15T16:41:55.895Z,1.00
2022-12-15T16:44:23.925Z,0.90
2022-12-15T16:46:51.446Z,0.90
2022-12-15T16:49:18.747Z,0.90
2022-12-15T16:51:49.363Z,1.00
2022-12-15T16:54:30.549Z,1.00
2022-12-15T16:57:00.084Z,0.90
2022-12-15T16:59:35.958Z,1.00
2022-12-15T17:02:23.978Z,1.00
2022-12-15T17:04:51.758Z,0.90
2022-12-15T17:07:20.717Z,0.90
2022-12-15T17:09:50.147Z,0.90
2022-12-15T17:12:18.331Z,0.90
2022-12-15T17:14:46.007Z,0.90
2022-12-15T17:17:16.129Z,0.90
2022-12-15T17:19:57.832Z,0.90
2022-12-15T17:22:30.536Z,0.90
2022-12-15T17:24:57.661Z,0.90
2022-12-15T17:27:29.534Z,0.90
2022-12-15T17:29:59.030Z,0.90
2022-12-15T17:32:26.828Z,1.00
2022-12-15T17:34:54.016Z,0.80
2022-12-15T17:37:21.180Z,0.90
2022-12-15T17:39:51.445Z,0.90
2022-12-15T17:42:20.793Z,0.90
2022-12-15T17:44:49.125Z,0.90
2022-12-15T17:47:19.533Z,0.90
2022-12-15T17:49:47.538Z,0.80
2022-12-15T17:52:34.474Z,0.80
2022-12-15T17:55:03.473Z,0.80
2022-12-15T17:57:33.636Z,0.80
2022-12-15T18:00:02.005Z,0.80
2022-12-15T18:02:29.691Z,0.80
2022-12-15T18:04:57.139Z,0.80
2022-12-15T18:07:24.535Z,0.80
2022-12-15T18:09:52.936Z,0.70
2022-12-15T18:12:25.569Z,0.60
2022-12-15T18:14:53.393Z,0.60
2022-12-15T18:17:20.870Z,0.50
2022-12-15T18:19:48.520Z,0.50
2022-12-15T18:22:33.804Z,0.60
2022-12-15T18:25:00.897Z,0.60
2022-12-15T18:27:29.277Z,0.60
2022-12-15T18:29:56.973Z,0.60
2022-12-15T18:32:27.145Z,0.60
2022-12-15T18:34:54.892Z,0.60
2022-12-15T18:37:24.849Z,0.60
2022-12-15T18:39:52.671Z,0.60
2022-12-15T18:42:21.894Z,0.70
2022-12-15T18:44:51.950Z,0.70
2022-12-15T18:47:21.543Z,0.70
2022-12-15T18:49:48.980Z,0.60
2022-12-15T18:52:30.043Z,0.60
2022-12-15T18:55:00.267Z,0.60
2022-12-15T18:57:37.975Z,0.60
2022-12-15T19:00:14.056Z,0.60
2022-12-15T19:02:42.414Z,0.60
2022-12-15T19:05:27.416Z,0.60
2022-12-15T19:08:04.021Z,0.60
2022-12-15T19:10:34.063Z,0.70
2022-12-15T19:13:01.341Z,0.60
2022-12-15T19:15:28.483Z,0.60
2022-12-15T19:18:14.337Z,0.60
2022-12-15T19:21:01.278Z,0.60
2022-12-15T19:23:28.592Z,0.60
2022-12-15T19:25:56.078Z,0.50
2022-12-15T19:28:24.270Z,0.50
2022-12-15T19:30:52.335Z,0.50
2022-12-15T19:33:20.013Z,0.50
2022-12-15T19:35:51.130Z,0.50
2022-12-15T19:38:31.587Z,0.50
2022-12-15T19:40:59.779Z,0.50
2022-12-15T19:43:27.377Z,0.50
2022-12-15T19:45:54.656Z,0.50
2022-12-15T19:48:24.049Z,0.50
2022-12-15T19:50:52.488Z,0.50
2022-12-15T19:53:31.298Z,0.40
2022-12-15T19:56:01.870Z,0.40
2022-12-15T19:58:34.815Z,0.40
2022-12-15T20:01:10.074Z,0.40
2022-12-15T20:03:37.895Z,0.50
2022-12-15T20:06:18.584Z,0.40
2022-12-15T20:08:48.247Z,0.30
2022-12-15T20:11:20.779Z,0.30
2022-12-15T20:13:49.308Z,0.40
2022-12-15T20:16:19.112Z,0.40
2022-12-15T20:18:52.298Z,0.30
2022-12-15T20:21:22.517Z,0.20
2022-12-15T20:23:53.815Z,0.20
2022-12-15T20:26:21.843Z,0.30
2022-12-15T20:28:49.042Z,0.40
2022-12-15T20:31:18.585Z,0.40
2022-12-15T20:33:46.701Z,0.30
2022-12-15T20:36:16.701Z,0.20
2022-12-15T20:38:44.736Z,0.20
2022-12-15T20:41:23.241Z,0.30
2022-12-15T20:43:51.346Z,0.30
2022-12-15T20:46:24.170Z,0.40
2022-12-15T20:48:53.526Z,0.40
2022-12-15T20:51:26.576Z,0.30
2022-12-15T20:53:55.943Z,0.30
2022-12-15T20:56:24.052Z,0.20
2022-12-15T20:58:52.951Z,0.20
2022-12-15T21:01:27.136Z,0.30
2022-12-15T21:03:56.528Z,0.30
2022-12-15T21:06:25.297Z,0.30
2022-12-15T21:08:52.984Z,0.30
2022-12-15T21:11:24.337Z,0.30
2022-12-15T21:13:53.668Z,0.30
2022-12-15T21:16:26.824Z,0.30
2022-12-15T21:21:47.785Z,0.30
2022-12-15T21:24:19.695Z,0.30
2022-12-15T21:26:47.035Z,0.30
2022-12-15T21:29:17.071Z,0.30
2022-12-15T21:31:45.256Z,0.30
2022-12-15T21:34:12.837Z,0.30
2022-12-15T21:36:43.989Z,0.30
2022-12-15T21:39:31.006Z,0.30
2022-12-15T21:42:00.313Z,0.20
2022-12-15T21:44:27.610Z,0.30
2022-12-15T21:46:54.846Z,0.30
2022-12-15T21:49:22.136Z,0.20
2022-12-15T21:52:00.344Z,0.20
2022-12-15T21:54:31.717Z,0.30
2022-12-15T21:57:00.216Z,0.40
2022-12-15T21:59:30.152Z,0.30
2022-12-15T22:01:57.554Z,0.30
2022-12-15T22:04:29.416Z,0.30
2022-12-15T22:06:56.563Z,0.20
2022-12-15T22:09:23.712Z,0.10
2022-12-15T22:11:55.804Z,0.00
2022-12-15T22:14:33.076Z,0.00
2022-12-15T22:17:16.367Z,0.00
2022-12-15T22:19:43.796Z,0.00
2022-12-15T22:22:12.339Z,0.00
2022-12-15T22:24:40.080Z,0.00
2022-12-15T22:27:20.420Z,0.10
2022-12-15T22:29:49.305Z,0.20
2022-12-15T22:32:17.400Z,0.20
2022-12-15T22:34:44.666Z,0.30
2022-12-15T22:37:11.754Z,0.30
2022-12-15T22:39:38.872Z,0.30
2022-12-15T22:42:06.382Z,0.30
2022-12-15T22:44:37.332Z,0.40
2022-12-15T22:47:06.585Z,0.30
2022-12-15T22:49:38.646Z,0.30
2022-12-15T22:52:20.383Z,0.20
2022-12-15T22:54:48.015Z,0.20
2022-12-15T22:57:23.050Z,0.20
2022-12-15T23:00:08.892Z,0.20
2022-12-15T23:02:40.775Z,0.20
2022-12-15T23:05:09.242Z,0.20
2022-12-15T23:07:36.484Z,0.20
2022-12-15T23:10:23.649Z,0.10
2022-12-15T23:12:54.444Z,0.00
2022-12-15T23:15:45.745Z,0.10
2022-12-15T23:18:13.439Z,0.10
2022-12-15T23:20:40.590Z,0.10
2022-12-15T23:23:08.635Z,0.10
2022-12-15T23:25:36.087Z,0.20
2022-12-15T23:28:03.601Z,0.20
2022-12-15T23:30:30.841Z,0.10
2022-12-15T23:32:57.998Z,0.10
2022-12-15T23:35:25.218Z,0.10
2022-12-15T23:37:52.338Z,0.20
2022-12-15T23:40:22.283Z,0.10
2022-12-15T23:42:50.684Z,0.10
2022-12-15T23:45:18.946Z,0.20
2022-12-15T23:47:46.153Z,0.20
2022-12-15T23:50:14.028Z,0.10
2022-12-15T23:52:41.416Z,0.00
2022-12-15T23:55:11.259Z,0.00
2022-12-15T23:57:39.411Z,-0.10
